sensor_id;sensor_type;location;lat;lon;timestamp;P1;durP1;ratioP1;P2;durP2;ratioP2
19944;SDS011;10134;50.952;6.930;2022-12-18T00:01:53;21.47;;;9.93;;
19944;SDS011;10134;50.952;6.930;2022-12-18T00:04:23;22.63;;;11.67;;
19944;SDS011;10134;50.952;6.930;2022-12-18T00:06:52;20.03;;;9.67;;
19944;SDS011;10134;50.952;6.930;2022-12-18T00:09:20;21.23;;;10.20;;
19944;SDS011;10134;50.952;6.930;2022-12-18T00:11:50;19.70;;;9.87;;
19944;SDS011;10134;50.952;6.930;2022-12-18T00:14:17;22.57;;;11.27;;
19944;SDS011;10134;50.952;6.930;2022-12-18T00:16:45;19.77;;;9.17;;
19944;SDS011;10134;50.952;6.930;2022-12-18T00:19:13;22.50;;;10.33;;
19944;SDS011;10134;50.952;6.930;2022-12-18T00:21:42;19.20;;;10.60;;
19944;SDS011;10134;50.952;6.930;2022-12-18T00:24:10;19.27;;;9.20;;
19944;SDS011;10134;50.952;6.930;2022-12-18T00:26:38;16.60;;;9.63;;
19944;SDS011;10134;50.952;6.930;2022-12-18T00:29:07;20.80;;;10.27;;
19944;SDS011;10134;50.952;6.930;2022-12-18T00:31:37;20.20;;;9.87;;
19944;SDS011;10134;50.952;6.930;2022-12-18T00:34:05;17.17;;;8.73;;
19944;SDS011;10134;50.952;6.930;2022-12-18T00:36:33;21.80;;;9.20;;
19944;SDS011;10134;50.952;6.930;2022-12-18T00:39:02;19.70;;;9.70;;
19944;SDS011;10134;50.952;6.930;2022-12-18T00:41:31;18.80;;;9.97;;
19944;SDS011;10134;50.952;6.930;2022-12-18T00:44:18;16.30;;;8.27;;
19944;SDS011;10134;50.952;6.930;2022-12-18T00:46:46;19.43;;;9.73;;
19944;SDS011;10134;50.952;6.930;2022-12-18T00:49:16;23.67;;;10.83;;
19944;SDS011;10134;50.952;6.930;2022-12-18T00:51:45;17.17;;;9.20;;
19944;SDS011;10134;50.952;6.930;2022-12-18T00:54:13;16.07;;;9.50;;
19944;SDS011;10134;50.952;6.930;2022-12-18T00:56:41;19.80;;;10.10;;
19944;SDS011;10134;50.952;6.930;2022-12-18T00:59:18;21.77;;;10.50;;
19944;SDS011;10134;50.952;6.930;2022-12-18T01:01:45;16.63;;;9.07;;
19944;SDS011;10134;50.952;6.930;2022-12-18T01:04:14;18.30;;;10.37;;
19944;SDS011;10134;50.952;6.930;2022-12-18T01:06:44;17.50;;;9.97;;
19944;SDS011;10134;50.952;6.930;2022-12-18T01:09:12;22.43;;;11.10;;
19944;SDS011;10134;50.952;6.930;2022-12-18T01:11:39;20.47;;;11.30;;
19944;SDS011;10134;50.952;6.930;2022-12-18T01:14:07;18.40;;;9.40;;
19944;SDS011;10134;50.952;6.930;2022-12-18T01:16:36;17.83;;;9.93;;
19944;SDS011;10134;50.952;6.930;2022-12-18T01:19:04;20.67;;;10.60;;
19944;SDS011;10134;50.952;6.930;2022-12-18T01:21:32;21.10;;;9.93;;
19944;SDS011;10134;50.952;6.930;2022-12-18T01:24:03;20.70;;;9.67;;
19944;SDS011;10134;50.952;6.930;2022-12-18T01:26:31;22.37;;;11.53;;
19944;SDS011;10134;50.952;6.930;2022-12-18T01:28:58;19.13;;;10.27;;
19944;SDS011;10134;50.952;6.930;2022-12-18T01:31:26;23.63;;;10.90;;
19944;SDS011;10134;50.952;6.930;2022-12-18T01:33:56;17.33;;;9.80;;
19944;SDS011;10134;50.952;6.930;2022-12-18T01:36:25;19.83;;;9.83;;
19944;SDS011;10134;50.952;6.930;2022-12-18T01:38:58;14.70;;;9.67;;
19944;SDS011;10134;50.952;6.930;2022-12-18T01:41:28;20.70;;;10.27;;
19944;SDS011;10134;50.952;6.930;2022-12-18T01:47:20;17.20;;;9.77;;
19944;SDS011;10134;50.952;6.930;2022-12-18T01:50:07;18.97;;;10.40;;
19944;SDS011;10134;50.952;6.930;2022-12-18T01:52:38;22.43;;;10.40;;
19944;SDS011;10134;50.952;6.930;2022-12-18T01:55:07;20.33;;;10.70;;
19944;SDS011;10134;50.952;6.930;2022-12-18T01:57:35;22.10;;;11.20;;
19944;SDS011;10134;50.952;6.930;2022-12-18T02:00:06;17.83;;;10.40;;
19944;SDS011;10134;50.952;6.930;2022-12-18T02:02:41;24.27;;;10.67;;
19944;SDS011;10134;50.952;6.930;2022-12-18T02:05:12;18.70;;;10.70;;
19944;SDS011;10134;50.952;6.930;2022-12-18T02:08:20;19.80;;;9.80;;
19944;SDS011;10134;50.952;6.930;2022-12-18T02:10:59;19.10;;;10.87;;
19944;SDS011;10134;50.952;6.930;2022-12-18T02:16:44;20.33;;;10.03;;
19944;SDS011;10134;50.952;6.930;2022-12-18T02:27:54;16.57;;;9.60;;
19944;SDS011;10134;50.952;6.930;2022-12-18T02:30:26;19.40;;;10.83;;
19944;SDS011;10134;50.952;6.930;2022-12-18T02:32:58;20.60;;;10.77;;
19944;SDS011;10134;50.952;6.930;2022-12-18T02:35:29;18.40;;;10.77;;
19944;SDS011;10134;50.952;6.930;2022-12-18T02:37:59;19.60;;;9.43;;
19944;SDS011;10134;50.952;6.930;2022-12-18T02:40:30;23.73;;;10.17;;
19944;SDS011;10134;50.952;6.930;2022-12-18T02:43:02;18.60;;;10.27;;
19944;SDS011;10134;50.952;6.930;2022-12-18T02:48:17;20.03;;;9.73;;
19944;SDS011;10134;50.952;6.930;2022-12-18T02:51:00;17.40;;;9.60;;
19944;SDS011;10134;50.952;6.930;2022-12-18T02:53:58;15.87;;;10.10;;
19944;SDS011;10134;50.952;6.930;2022-12-18T02:56:46;18.13;;;9.70;;
19944;SDS011;10134;50.952;6.930;2022-12-18T02:59:23;18.00;;;9.47;;
19944;SDS011;10134;50.952;6.930;2022-12-18T03:02:04;18.80;;;9.63;;
19944;SDS011;10134;50.952;6.930;2022-12-18T03:05:05;22.10;;;11.27;;
19944;SDS011;10134;50.952;6.930;2022-12-18T03:07:43;18.50;;;10.23;;
19944;SDS011;10134;50.952;6.930;2022-12-18T03:10:21;17.10;;;9.53;;
19944;SDS011;10134;50.952;6.930;2022-12-18T03:12:57;20.17;;;9.83;;
19944;SDS011;10134;50.952;6.930;2022-12-18T03:15:41;21.63;;;10.83;;
19944;SDS011;10134;50.952;6.930;2022-12-18T03:18:15;17.63;;;9.50;;
19944;SDS011;10134;50.952;6.930;2022-12-18T03:20:47;22.87;;;10.23;;
19944;SDS011;10134;50.952;6.930;2022-12-18T03:23:24;21.30;;;10.10;;
19944;SDS011;10134;50.952;6.930;2022-12-18T03:25:57;17.13;;;9.63;;
19944;SDS011;10134;50.952;6.930;2022-12-18T03:28:38;19.00;;;10.07;;
19944;SDS011;10134;50.952;6.930;2022-12-18T03:31:11;16.80;;;9.50;;
19944;SDS011;10134;50.952;6.930;2022-12-18T03:33:53;22.30;;;9.67;;
19944;SDS011;10134;50.952;6.930;2022-12-18T03:36:29;18.40;;;9.53;;
19944;SDS011;10134;50.952;6.930;2022-12-18T03:38:57;17.00;;;9.03;;
19944;SDS011;10134;50.952;6.930;2022-12-18T03:47:34;17.73;;;9.13;;
19944;SDS011;10134;50.952;6.930;2022-12-18T03:50:14;19.13;;;9.57;;
19944;SDS011;10134;50.952;6.930;2022-12-18T03:55:35;19.10;;;10.73;;
19944;SDS011;10134;50.952;6.930;2022-12-18T03:58:05;17.23;;;9.77;;
19944;SDS011;10134;50.952;6.930;2022-12-18T04:00:47;20.07;;;10.97;;
19944;SDS011;10134;50.952;6.930;2022-12-18T04:03:19;16.90;;;10.80;;
19944;SDS011;10134;50.952;6.930;2022-12-18T04:05:52;23.07;;;10.20;;
19944;SDS011;10134;50.952;6.930;2022-12-18T04:08:21;23.83;;;9.70;;
19944;SDS011;10134;50.952;6.930;2022-12-18T04:10:59;14.90;;;8.53;;
19944;SDS011;10134;50.952;6.930;2022-12-18T04:13:32;17.53;;;9.33;;
19944;SDS011;10134;50.952;6.930;2022-12-18T04:16:05;20.47;;;10.70;;
19944;SDS011;10134;50.952;6.930;2022-12-18T04:18:33;19.70;;;10.00;;
19944;SDS011;10134;50.952;6.930;2022-12-18T04:21:01;17.73;;;9.20;;
19944;SDS011;10134;50.952;6.930;2022-12-18T04:23:29;19.00;;;10.47;;
19944;SDS011;10134;50.952;6.930;2022-12-18T04:25:58;18.80;;;10.37;;
19944;SDS011;10134;50.952;6.930;2022-12-18T04:28:44;17.00;;;9.90;;
19944;SDS011;10134;50.952;6.930;2022-12-18T04:31:12;19.83;;;10.53;;
19944;SDS011;10134;50.952;6.930;2022-12-18T04:33:40;19.10;;;10.37;;
19944;SDS011;10134;50.952;6.930;2022-12-18T04:36:08;21.53;;;10.90;;
19944;SDS011;10134;50.952;6.930;2022-12-18T04:38:36;20.13;;;10.80;;
19944;SDS011;10134;50.952;6.930;2022-12-18T04:41:07;23.20;;;11.33;;
19944;SDS011;10134;50.952;6.930;2022-12-18T04:43:35;19.73;;;10.60;;
19944;SDS011;10134;50.952;6.930;2022-12-18T04:46:04;20.00;;;10.53;;
19944;SDS011;10134;50.952;6.930;2022-12-18T04:48:32;25.87;;;12.93;;
19944;SDS011;10134;50.952;6.930;2022-12-18T04:51:01;22.93;;;11.63;;
19944;SDS011;10134;50.952;6.930;2022-12-18T04:53:29;24.87;;;12.97;;
19944;SDS011;10134;50.952;6.930;2022-12-18T04:56:10;20.50;;;10.97;;
19944;SDS011;10134;50.952;6.930;2022-12-18T04:58:40;22.17;;;11.07;;
19944;SDS011;10134;50.952;6.930;2022-12-18T05:01:08;16.93;;;9.70;;
19944;SDS011;10134;50.952;6.930;2022-12-18T05:03:37;20.13;;;10.83;;
19944;SDS011;10134;50.952;6.930;2022-12-18T05:06:05;21.03;;;11.87;;
19944;SDS011;10134;50.952;6.930;2022-12-18T05:08:33;22.60;;;11.73;;
19944;SDS011;10134;50.952;6.930;2022-12-18T05:11:01;18.57;;;10.27;;
19944;SDS011;10134;50.952;6.930;2022-12-18T05:13:31;22.50;;;11.93;;
19944;SDS011;10134;50.952;6.930;2022-12-18T05:15:59;20.97;;;12.10;;
19944;SDS011;10134;50.952;6.930;2022-12-18T05:18:27;20.83;;;11.00;;
19944;SDS011;10134;50.952;6.930;2022-12-18T05:20:54;17.93;;;10.33;;
19944;SDS011;10134;50.952;6.930;2022-12-18T05:23:22;20.77;;;11.20;;
19944;SDS011;10134;50.952;6.930;2022-12-18T05:25:51;21.40;;;11.17;;
19944;SDS011;10134;50.952;6.930;2022-12-18T05:28:19;19.60;;;11.30;;
19944;SDS011;10134;50.952;6.930;2022-12-18T05:30:48;19.47;;;10.53;;
19944;SDS011;10134;50.952;6.930;2022-12-18T05:33:16;18.53;;;9.73;;
19944;SDS011;10134;50.952;6.930;2022-12-18T05:35:49;20.13;;;11.23;;
19944;SDS011;10134;50.952;6.930;2022-12-18T05:38:19;21.27;;;11.13;;
19944;SDS011;10134;50.952;6.930;2022-12-18T05:40:49;19.03;;;9.97;;
19944;SDS011;10134;50.952;6.930;2022-12-18T05:43:18;20.83;;;10.97;;
19944;SDS011;10134;50.952;6.930;2022-12-18T05:45:47;25.13;;;12.00;;
19944;SDS011;10134;50.952;6.930;2022-12-18T05:48:15;19.97;;;11.07;;
19944;SDS011;10134;50.952;6.930;2022-12-18T05:50:44;22.80;;;12.03;;
19944;SDS011;10134;50.952;6.930;2022-12-18T05:53:13;23.03;;;11.40;;
19944;SDS011;10134;50.952;6.930;2022-12-18T05:55:43;20.63;;;10.93;;
19944;SDS011;10134;50.952;6.930;2022-12-18T05:58:11;23.47;;;11.53;;
19944;SDS011;10134;50.952;6.930;2022-12-18T06:00:40;19.87;;;11.27;;
19944;SDS011;10134;50.952;6.930;2022-12-18T06:03:09;19.07;;;11.27;;
19944;SDS011;10134;50.952;6.930;2022-12-18T06:05:38;19.07;;;11.37;;
19944;SDS011;10134;50.952;6.930;2022-12-18T06:08:07;21.53;;;11.33;;
19944;SDS011;10134;50.952;6.930;2022-12-18T06:10:35;20.10;;;12.03;;
19944;SDS011;10134;50.952;6.930;2022-12-18T06:13:03;22.23;;;11.13;;
19944;SDS011;10134;50.952;6.930;2022-12-18T06:15:31;23.90;;;12.43;;
19944;SDS011;10134;50.952;6.930;2022-12-18T06:18:00;24.47;;;13.13;;
19944;SDS011;10134;50.952;6.930;2022-12-18T06:20:27;21.93;;;11.30;;
19944;SDS011;10134;50.952;6.930;2022-12-18T06:22:59;25.40;;;12.70;;
19944;SDS011;10134;50.952;6.930;2022-12-18T06:25:26;21.40;;;12.13;;
19944;SDS011;10134;50.952;6.930;2022-12-18T06:27:54;23.63;;;12.50;;
19944;SDS011;10134;50.952;6.930;2022-12-18T06:30:21;23.60;;;12.97;;
19944;SDS011;10134;50.952;6.930;2022-12-18T06:32:49;22.77;;;12.10;;
19944;SDS011;10134;50.952;6.930;2022-12-18T06:35:23;19.50;;;10.53;;
19944;SDS011;10134;50.952;6.930;2022-12-18T06:37:50;22.13;;;11.17;;
19944;SDS011;10134;50.952;6.930;2022-12-18T06:40:18;19.87;;;11.87;;
19944;SDS011;10134;50.952;6.930;2022-12-18T06:42:45;23.63;;;11.83;;
19944;SDS011;10134;50.952;6.930;2022-12-18T06:45:12;23.20;;;13.43;;
19944;SDS011;10134;50.952;6.930;2022-12-18T06:47:43;22.37;;;12.50;;
19944;SDS011;10134;50.952;6.930;2022-12-18T06:50:10;22.90;;;12.93;;
19944;SDS011;10134;50.952;6.930;2022-12-18T06:52:38;22.60;;;12.33;;
19944;SDS011;10134;50.952;6.930;2022-12-18T06:55:07;24.50;;;11.93;;
19944;SDS011;10134;50.952;6.930;2022-12-18T06:57:36;22.53;;;12.60;;
19944;SDS011;10134;50.952;6.930;2022-12-18T07:00:04;23.33;;;13.13;;
19944;SDS011;10134;50.952;6.930;2022-12-18T07:02:33;23.13;;;11.83;;
19944;SDS011;10134;50.952;6.930;2022-12-18T07:05:00;22.07;;;11.60;;
19944;SDS011;10134;50.952;6.930;2022-12-18T07:07:36;25.90;;;10.93;;
19944;SDS011;10134;50.952;6.930;2022-12-18T07:10:03;20.70;;;11.87;;
19944;SDS011;10134;50.952;6.930;2022-12-18T07:12:31;24.17;;;12.83;;
19944;SDS011;10134;50.952;6.930;2022-12-18T07:14:58;21.57;;;11.63;;
19944;SDS011;10134;50.952;6.930;2022-12-18T07:17:26;21.83;;;11.60;;
19944;SDS011;10134;50.952;6.930;2022-12-18T07:19:53;20.67;;;11.70;;
19944;SDS011;10134;50.952;6.930;2022-12-18T07:22:20;24.17;;;11.73;;
19944;SDS011;10134;50.952;6.930;2022-12-18T07:24:48;22.37;;;12.00;;
19944;SDS011;10134;50.952;6.930;2022-12-18T07:27:15;18.47;;;10.40;;
19944;SDS011;10134;50.952;6.930;2022-12-18T07:29:43;25.77;;;13.27;;
19944;SDS011;10134;50.952;6.930;2022-12-18T07:32:11;20.60;;;12.53;;
19944;SDS011;10134;50.952;6.930;2022-12-18T07:34:39;23.80;;;12.60;;
19944;SDS011;10134;50.952;6.930;2022-12-18T07:37:06;21.00;;;12.07;;
19944;SDS011;10134;50.952;6.930;2022-12-18T07:42:26;20.50;;;11.37;;
19944;SDS011;10134;50.952;6.930;2022-12-18T07:44:59;25.77;;;11.97;;
19944;SDS011;10134;50.952;6.930;2022-12-18T07:47:27;23.00;;;11.60;;
19944;SDS011;10134;50.952;6.930;2022-12-18T07:49:58;25.87;;;12.47;;
19944;SDS011;10134;50.952;6.930;2022-12-18T07:52:25;20.33;;;10.30;;
19944;SDS011;10134;50.952;6.930;2022-12-18T07:54:53;22.90;;;11.50;;
19944;SDS011;10134;50.952;6.930;2022-12-18T07:57:20;24.57;;;12.60;;
19944;SDS011;10134;50.952;6.930;2022-12-18T08:00:08;23.73;;;11.77;;
19944;SDS011;10134;50.952;6.930;2022-12-18T08:02:38;25.20;;;12.57;;
19944;SDS011;10134;50.952;6.930;2022-12-18T08:05:08;21.47;;;12.73;;
19944;SDS011;10134;50.952;6.930;2022-12-18T08:07:35;23.40;;;12.70;;
19944;SDS011;10134;50.952;6.930;2022-12-18T08:10:03;26.53;;;12.37;;
19944;SDS011;10134;50.952;6.930;2022-12-18T08:12:31;22.20;;;11.57;;
19944;SDS011;10134;50.952;6.930;2022-12-18T08:14:59;25.87;;;13.67;;
19944;SDS011;10134;50.952;6.930;2022-12-18T08:17:26;21.77;;;11.40;;
19944;SDS011;10134;50.952;6.930;2022-12-18T08:19:53;24.87;;;13.70;;
19944;SDS011;10134;50.952;6.930;2022-12-18T08:22:21;23.27;;;13.00;;
19944;SDS011;10134;50.952;6.930;2022-12-18T08:24:48;22.13;;;11.53;;
19944;SDS011;10134;50.952;6.930;2022-12-18T08:27:16;27.43;;;13.70;;
19944;SDS011;10134;50.952;6.930;2022-12-18T08:29:58;19.17;;;11.37;;
19944;SDS011;10134;50.952;6.930;2022-12-18T08:32:26;26.27;;;11.80;;
19944;SDS011;10134;50.952;6.930;2022-12-18T08:34:54;23.67;;;12.57;;
19944;SDS011;10134;50.952;6.930;2022-12-18T08:37:22;22.23;;;11.93;;
19944;SDS011;10134;50.952;6.930;2022-12-18T08:39:49;25.30;;;12.80;;
19944;SDS011;10134;50.952;6.930;2022-12-18T08:42:16;20.33;;;11.60;;
19944;SDS011;10134;50.952;6.930;2022-12-18T08:45:03;27.50;;;12.67;;
19944;SDS011;10134;50.952;6.930;2022-12-18T08:47:30;26.60;;;11.87;;
19944;SDS011;10134;50.952;6.930;2022-12-18T08:49:58;21.60;;;11.70;;
19944;SDS011;10134;50.952;6.930;2022-12-18T08:52:25;20.43;;;11.63;;
19944;SDS011;10134;50.952;6.930;2022-12-18T08:54:53;24.13;;;12.50;;
19944;SDS011;10134;50.952;6.930;2022-12-18T08:57:20;23.93;;;12.27;;
19944;SDS011;10134;50.952;6.930;2022-12-18T08:59:47;22.50;;;12.33;;
19944;SDS011;10134;50.952;6.930;2022-12-18T09:02:15;22.53;;;11.27;;
19944;SDS011;10134;50.952;6.930;2022-12-18T09:04:42;22.47;;;11.80;;
19944;SDS011;10134;50.952;6.930;2022-12-18T09:07:12;23.63;;;11.07;;
19944;SDS011;10134;50.952;6.930;2022-12-18T09:09:39;23.97;;;11.43;;
19944;SDS011;10134;50.952;6.930;2022-12-18T09:12:07;19.87;;;11.10;;
19944;SDS011;10134;50.952;6.930;2022-12-18T09:14:34;20.23;;;11.47;;
19944;SDS011;10134;50.952;6.930;2022-12-18T09:17:02;23.87;;;11.57;;
19944;SDS011;10134;50.952;6.930;2022-12-18T09:19:30;18.10;;;11.07;;
19944;SDS011;10134;50.952;6.930;2022-12-18T09:21:57;21.00;;;11.23;;
19944;SDS011;10134;50.952;6.930;2022-12-18T09:24:24;21.13;;;11.27;;
19944;SDS011;10134;50.952;6.930;2022-12-18T09:26:54;22.47;;;11.53;;
19944;SDS011;10134;50.952;6.930;2022-12-18T09:29:24;23.13;;;12.10;;
19944;SDS011;10134;50.952;6.930;2022-12-18T09:31:51;18.83;;;10.50;;
19944;SDS011;10134;50.952;6.930;2022-12-18T09:34:18;19.57;;;10.17;;
19944;SDS011;10134;50.952;6.930;2022-12-18T09:36:48;19.67;;;11.60;;
19944;SDS011;10134;50.952;6.930;2022-12-18T09:39:16;18.93;;;10.00;;
19944;SDS011;10134;50.952;6.930;2022-12-18T09:41:48;22.27;;;11.10;;
19944;SDS011;10134;50.952;6.930;2022-12-18T09:49:52;19.47;;;10.20;;
19944;SDS011;10134;50.952;6.930;2022-12-18T09:52:41;20.70;;;10.93;;
19944;SDS011;10134;50.952;6.930;2022-12-18T09:57:45;24.40;;;11.90;;
19944;SDS011;10134;50.952;6.930;2022-12-18T10:00:19;21.77;;;10.43;;
19944;SDS011;10134;50.952;6.930;2022-12-18T10:02:48;18.70;;;10.60;;
19944;SDS011;10134;50.952;6.930;2022-12-18T10:05:21;17.53;;;10.67;;
19944;SDS011;10134;50.952;6.930;2022-12-18T10:08:05;22.07;;;11.57;;
19944;SDS011;10134;50.952;6.930;2022-12-18T10:11:15;19.73;;;11.10;;
19944;SDS011;10134;50.952;6.930;2022-12-18T10:13:54;22.50;;;10.67;;
19944;SDS011;10134;50.952;6.930;2022-12-18T10:16:51;26.27;;;12.10;;
19944;SDS011;10134;50.952;6.930;2022-12-18T10:19:32;18.70;;;11.50;;
19944;SDS011;10134;50.952;6.930;2022-12-18T10:22:11;22.00;;;11.20;;
19944;SDS011;10134;50.952;6.930;2022-12-18T10:25:06;22.67;;;11.03;;
19944;SDS011;10134;50.952;6.930;2022-12-18T10:27:36;19.73;;;11.17;;
19944;SDS011;10134;50.952;6.930;2022-12-18T10:30:11;21.40;;;12.33;;
19944;SDS011;10134;50.952;6.930;2022-12-18T10:32:41;20.63;;;11.80;;
19944;SDS011;10134;50.952;6.930;2022-12-18T10:35:27;22.00;;;11.57;;
19944;SDS011;10134;50.952;6.930;2022-12-18T10:40:32;17.87;;;10.67;;
19944;SDS011;10134;50.952;6.930;2022-12-18T10:43:14;20.73;;;10.90;;
19944;SDS011;10134;50.952;6.930;2022-12-18T10:45:57;23.53;;;11.20;;
19944;SDS011;10134;50.952;6.930;2022-12-18T10:48:28;17.87;;;10.90;;
19944;SDS011;10134;50.952;6.930;2022-12-18T10:50:58;16.87;;;9.77;;
19944;SDS011;10134;50.952;6.930;2022-12-18T10:53:39;22.63;;;12.07;;
19944;SDS011;10134;50.952;6.930;2022-12-18T10:56:08;19.57;;;10.47;;
19944;SDS011;10134;50.952;6.930;2022-12-18T10:58:37;21.87;;;11.03;;
19944;SDS011;10134;50.952;6.930;2022-12-18T11:06:18;18.33;;;10.80;;
19944;SDS011;10134;50.952;6.930;2022-12-18T11:08:58;18.23;;;11.03;;
19944;SDS011;10134;50.952;6.930;2022-12-18T11:11:51;17.47;;;10.27;;
19944;SDS011;10134;50.952;6.930;2022-12-18T11:14:22;19.57;;;10.80;;
19944;SDS011;10134;50.952;6.930;2022-12-18T11:16:52;17.77;;;10.30;;
19944;SDS011;10134;50.952;6.930;2022-12-18T11:19:40;16.63;;;10.90;;
19944;SDS011;10134;50.952;6.930;2022-12-18T11:22:19;21.63;;;9.77;;
19944;SDS011;10134;50.952;6.930;2022-12-18T11:25:07;22.00;;;11.80;;
19944;SDS011;10134;50.952;6.930;2022-12-18T11:28:24;19.93;;;10.13;;
19944;SDS011;10134;50.952;6.930;2022-12-18T11:31:12;18.60;;;9.63;;
19944;SDS011;10134;50.952;6.930;2022-12-18T11:34:32;25.83;;;10.40;;
19944;SDS011;10134;50.952;6.930;2022-12-18T11:36:55;19.10;;;10.50;;
19944;SDS011;10134;50.952;6.930;2022-12-18T11:39:49;18.53;;;9.57;;
19944;SDS011;10134;50.952;6.930;2022-12-18T11:45:23;19.60;;;10.57;;
19944;SDS011;10134;50.952;6.930;2022-12-18T11:48:14;19.80;;;10.47;;
19944;SDS011;10134;50.952;6.930;2022-12-18T11:50:53;22.33;;;11.17;;
19944;SDS011;10134;50.952;6.930;2022-12-18T11:53:23;21.87;;;11.87;;
19944;SDS011;10134;50.952;6.930;2022-12-18T12:23:47;21.73;;;11.03;;
19944;SDS011;10134;50.952;6.930;2022-12-18T12:29:29;21.77;;;11.83;;
19944;SDS011;10134;50.952;6.930;2022-12-18T12:40:48;22.97;;;12.47;;
19944;SDS011;10134;50.952;6.930;2022-12-18T12:46:16;22.43;;;12.67;;
19944;SDS011;10134;50.952;6.930;2022-12-18T12:48:49;22.00;;;12.40;;
19944;SDS011;10134;50.952;6.930;2022-12-18T12:51:30;30.90;;;14.60;;
19944;SDS011;10134;50.952;6.930;2022-12-18T12:54:02;25.50;;;14.10;;
19944;SDS011;10134;50.952;6.930;2022-12-18T12:56:42;24.73;;;12.50;;
19944;SDS011;10134;50.952;6.930;2022-12-18T12:59:40;23.80;;;11.90;;
19944;SDS011;10134;50.952;6.930;2022-12-18T13:02:42;23.40;;;13.43;;
19944;SDS011;10134;50.952;6.930;2022-12-18T13:05:30;24.17;;;12.17;;
19944;SDS011;10134;50.952;6.930;2022-12-18T13:08:04;24.17;;;13.30;;
19944;SDS011;10134;50.952;6.930;2022-12-18T13:10:35;27.80;;;12.73;;
19944;SDS011;10134;50.952;6.930;2022-12-18T13:13:08;29.23;;;12.93;;
19944;SDS011;10134;50.952;6.930;2022-12-18T13:16:04;26.93;;;14.13;;
19944;SDS011;10134;50.952;6.930;2022-12-18T13:18:33;22.40;;;12.47;;
19944;SDS011;10134;50.952;6.930;2022-12-18T13:23:55;23.60;;;12.50;;
19944;SDS011;10134;50.952;6.930;2022-12-18T13:28:58;29.60;;;13.40;;
19944;SDS011;10134;50.952;6.930;2022-12-18T13:34:15;23.13;;;13.07;;
19944;SDS011;10134;50.952;6.930;2022-12-18T13:36:54;28.90;;;13.67;;
19944;SDS011;10134;50.952;6.930;2022-12-18T13:39:24;27.13;;;14.20;;
19944;SDS011;10134;50.952;6.930;2022-12-18T13:47:26;23.13;;;13.20;;
19944;SDS011;10134;50.952;6.930;2022-12-18T13:50:00;24.70;;;13.93;;
19944;SDS011;10134;50.952;6.930;2022-12-18T13:52:37;24.63;;;13.90;;
19944;SDS011;10134;50.952;6.930;2022-12-18T13:55:07;25.00;;;13.77;;
19944;SDS011;10134;50.952;6.930;2022-12-18T13:57:43;25.87;;;13.77;;
19944;SDS011;10134;50.952;6.930;2022-12-18T14:02:51;28.47;;;14.00;;
19944;SDS011;10134;50.952;6.930;2022-12-18T14:05:23;26.73;;;13.60;;
19944;SDS011;10134;50.952;6.930;2022-12-18T14:07:54;28.77;;;15.13;;
19944;SDS011;10134;50.952;6.930;2022-12-18T14:10:25;24.73;;;13.17;;
19944;SDS011;10134;50.952;6.930;2022-12-18T14:13:32;30.13;;;14.60;;
19944;SDS011;10134;50.952;6.930;2022-12-18T14:16:06;25.83;;;13.97;;
19944;SDS011;10134;50.952;6.930;2022-12-18T14:21:17;24.57;;;13.23;;
19944;SDS011;10134;50.952;6.930;2022-12-18T14:24:02;28.37;;;13.90;;
19944;SDS011;10134;50.952;6.930;2022-12-18T14:26:45;21.67;;;13.27;;
19944;SDS011;10134;50.952;6.930;2022-12-18T14:29:23;27.60;;;13.93;;
19944;SDS011;10134;50.952;6.930;2022-12-18T14:34:47;26.80;;;14.37;;
19944;SDS011;10134;50.952;6.930;2022-12-18T14:37:22;26.23;;;14.50;;
19944;SDS011;10134;50.952;6.930;2022-12-18T14:40:02;23.63;;;13.83;;
19944;SDS011;10134;50.952;6.930;2022-12-18T14:42:37;28.20;;;14.80;;
19944;SDS011;10134;50.952;6.930;2022-12-18T14:50:39;26.40;;;15.00;;
19944;SDS011;10134;50.952;6.930;2022-12-18T14:53:54;24.27;;;14.17;;
19944;SDS011;10134;50.952;6.930;2022-12-18T14:56:03;29.00;;;14.63;;
19944;SDS011;10134;50.952;6.930;2022-12-18T14:58:50;25.90;;;13.57;;
19944;SDS011;10134;50.952;6.930;2022-12-18T15:01:28;23.30;;;13.07;;
19944;SDS011;10134;50.952;6.930;2022-12-18T15:03:58;24.00;;;14.13;;
19944;SDS011;10134;50.952;6.930;2022-12-18T15:06:28;28.37;;;15.60;;
19944;SDS011;10134;50.952;6.930;2022-12-18T15:08:56;25.40;;;13.30;;
19944;SDS011;10134;50.952;6.930;2022-12-18T15:11:44;28.27;;;14.97;;
19944;SDS011;10134;50.952;6.930;2022-12-18T15:17:23;30.50;;;15.63;;
19944;SDS011;10134;50.952;6.930;2022-12-18T15:20:00;29.90;;;14.80;;
19944;SDS011;10134;50.952;6.930;2022-12-18T15:22:30;30.83;;;14.33;;
19944;SDS011;10134;50.952;6.930;2022-12-18T15:25:03;26.73;;;14.93;;
19944;SDS011;10134;50.952;6.930;2022-12-18T15:27:50;27.50;;;14.00;;
19944;SDS011;10134;50.952;6.930;2022-12-18T15:30:19;28.07;;;14.73;;
19944;SDS011;10134;50.952;6.930;2022-12-18T15:32:50;28.87;;;14.33;;
19944;SDS011;10134;50.952;6.930;2022-12-18T15:37:48;32.63;;;15.87;;
19944;SDS011;10134;50.952;6.930;2022-12-18T15:40:19;24.43;;;14.83;;
19944;SDS011;10134;50.952;6.930;2022-12-18T15:42:47;33.37;;;15.90;;
19944;SDS011;10134;50.952;6.930;2022-12-18T15:45:36;27.27;;;15.37;;
19944;SDS011;10134;50.952;6.930;2022-12-18T15:48:20;33.37;;;16.47;;
19944;SDS011;10134;50.952;6.930;2022-12-18T15:50:52;29.07;;;15.63;;
19944;SDS011;10134;50.952;6.930;2022-12-18T15:53:24;25.90;;;15.33;;
19944;SDS011;10134;50.952;6.930;2022-12-18T15:55:53;31.60;;;16.83;;
19944;SDS011;10134;50.952;6.930;2022-12-18T15:58:38;25.23;;;15.33;;
19944;SDS011;10134;50.952;6.930;2022-12-18T16:01:06;31.63;;;15.83;;
19944;SDS011;10134;50.952;6.930;2022-12-18T16:03:35;29.53;;;15.93;;
19944;SDS011;10134;50.952;6.930;2022-12-18T16:06:03;26.77;;;14.93;;
19944;SDS011;10134;50.952;6.930;2022-12-18T16:08:30;28.07;;;14.93;;
19944;SDS011;10134;50.952;6.930;2022-12-18T16:10:59;31.70;;;15.67;;
19944;SDS011;10134;50.952;6.930;2022-12-18T16:13:26;30.93;;;17.20;;
19944;SDS011;10134;50.952;6.930;2022-12-18T16:15:54;36.57;;;16.10;;
19944;SDS011;10134;50.952;6.930;2022-12-18T16:18:21;34.60;;;16.03;;
19944;SDS011;10134;50.952;6.930;2022-12-18T16:20:48;33.23;;;16.53;;
19944;SDS011;10134;50.952;6.930;2022-12-18T16:23:16;32.13;;;16.87;;
19944;SDS011;10134;50.952;6.930;2022-12-18T16:25:43;33.77;;;16.70;;
19944;SDS011;10134;50.952;6.930;2022-12-18T16:28:10;32.37;;;16.57;;
19944;SDS011;10134;50.952;6.930;2022-12-18T16:30:37;34.13;;;16.03;;
19944;SDS011;10134;50.952;6.930;2022-12-18T16:33:05;37.63;;;19.47;;
19944;SDS011;10134;50.952;6.930;2022-12-18T16:35:33;30.27;;;18.13;;
19944;SDS011;10134;50.952;6.930;2022-12-18T16:38:03;37.60;;;16.87;;
19944;SDS011;10134;50.952;6.930;2022-12-18T16:40:31;31.97;;;16.83;;
19944;SDS011;10134;50.952;6.930;2022-12-18T16:42:59;36.67;;;16.60;;
19944;SDS011;10134;50.952;6.930;2022-12-18T16:45:26;31.83;;;16.83;;
19944;SDS011;10134;50.952;6.930;2022-12-18T16:47:59;32.10;;;17.87;;
19944;SDS011;10134;50.952;6.930;2022-12-18T16:50:26;35.53;;;15.83;;
19944;SDS011;10134;50.952;6.930;2022-12-18T16:52:54;32.00;;;16.63;;
19944;SDS011;10134;50.952;6.930;2022-12-18T16:55:21;37.03;;;18.40;;
19944;SDS011;10134;50.952;6.930;2022-12-18T16:57:48;34.33;;;19.30;;
19944;SDS011;10134;50.952;6.930;2022-12-18T17:00:15;33.23;;;17.50;;